Pagrindinis puslapis
METAR-TAF:

METAR-TAF

Oro uostai :

El Pasas, Teksasas, Jungtinės Amerikos Valstijos

platuma: 31-48-40N, ilguma: 106-22-33W, Aukštis: 1206 m

Dabartinis oras

Ataskaita buvo paskelbta 58 minutes, ne 16:51 UTC
Vėjas 6 kt iš Rytų/Pietryčių
Temperatūra 26°C
Drėgmė 45%
Slėgis 1023 hPa
Matomumas: 16.1 km
Mažai debesys ne aukštis 12000 ft
Mažai debesys ne aukštis 15000 ft

METAR: KELP 031651Z 12006KT 10SM FEW120 FEW150 26/13 A3020 RMK AO2 SLP152 T02610128

Laikas: 12:49 (17:49 UTC)

Prognozė

Ataskaita buvo paskelbta 10 minutes, ne 17:39 UTC
Prognozė galioja nuo 03 metu 18 UTC su 04 metu 18 UTC
Vėjas 6 kt iš Rytų/Pietryčių
Matomumas: 10 km
Mažai debesys ne aukštis 12000 ft
Nuo 03 metu 2100 UTC
Vėjas 10 kt iš Rytų/Pietryčių
Matomumas: 10 km
Išsisklaidę debesys ne aukštis 25000 ft
Nuo 04 metu 0900 UTC
Vėjas 5 kt iš Rytų
Matomumas: 10 km
Su prošvaistėmis ne aukštis 25000 ft

TAF: KELP 031739Z 0318/0418 12006KT P6SM FEW120 FM032100 11010KT P6SM SCT250 FM040900 08005KT P6SM BKN250

Orai ataskaitas ir orų prognozės (METAR, TAF).

turimą stotys yra geltonos ir raudonos taškus žemėlapyje.

Perkelti pele per norėdami pamatyti stoties vardą.

Tada spustelėkite, norėdami matyti oro stebėjimo ir prognozės.

Norėdami pakeisti žemėlapį: spustelėkite ant žalios mygtukų su juodo kryžiaus žemyn,; žalią mygtuką su brūkšneliu, jei norite nutolinti; arba žalių rodyklių gretimoms žemėlapius.


METAR-TAF: